Time;durP1;ratioP1;P1;durP2;ratioP2;P2;SDS_P1;SDS_P2;PMS_P1;PMS_P2;Temp;Humidity;BMP_temperature;BMP_pressure;BME280_temperature;BME280_humidity;BME280_pressure;Samples;Min_cycle;Max_cycle;Signal;HPM_P1;HPM_P2
2022/05/06 00:01:11;;;;;;;;;;;26.70;38.40;;;;;;5072100;28;955;-48
2022/05/06 00:03:39;;;;;;;;;;;26.70;38.50;;;;;;5072370;28;1018;-44
2022/05/06 00:06:06;;;;;;;;;;;26.70;38.50;;;;;;5073917;28;992;-46
2022/05/06 00:08:34;;;;;;;;;;;26.70;38.50;;;;;;5073559;28;857;-46
2022/05/06 00:11:01;;;;;;;;;;;26.70;38.40;;;;;;5073588;28;1036;-46
2022/05/06 00:13:28;;;;;;;;;;;26.70;38.40;;;;;;5073377;28;1905;-45
2022/05/06 00:15:54;;;;;;;;;;;26.70;38.40;;;;;;5075139;28;1070;-45
2022/05/06 00:18:21;;;;;;;;;;;26.70;38.40;;;;;;5074174;28;1048;-46
2022/05/06 00:20:49;;;;;;;;;;;26.70;38.40;;;;;;5073471;28;1027;-46
2022/05/06 00:23:16;;;;;;;;;;;26.70;38.40;;;;;;5073942;28;945;-46
2022/05/06 00:25:43;;;;;;;;;;;26.70;38.30;;;;;;5073740;28;1012;-46
2022/05/06 00:28:09;;;;;;;;;;;26.70;38.40;;;;;;5073735;28;1003;-46
2022/05/06 00:30:36;;;;;;;;;;;26.70;38.30;;;;;;5074126;28;996;-45
2022/05/06 00:33:02;;;;;;;;;;;26.70;38.40;;;;;;5073822;28;1902;-47
2022/05/06 00:35:29;;;;;;;;;;;26.70;38.40;;;;;;5075019;28;981;-46
2022/05/06 00:37:58;;;;;;;;;;;26.70;38.40;;;;;;5074781;28;952;-46
2022/05/06 00:40:24;;;;;;;;;;;26.60;38.40;;;;;;5074437;28;1043;-46
2022/05/06 00:42:51;;;;;;;;;;;26.60;38.40;;;;;;5073941;28;1104;-46
2022/05/06 00:45:18;;;;;;;;;;;26.60;38.30;;;;;;5076822;28;937;-46
2022/05/06 00:47:46;;;;;;;;;;;26.70;38.40;;;;;;5077487;28;1004;-47
2022/05/06 00:50:13;;;;;;;;;;;26.60;38.30;;;;;;5076824;28;926;-47
2022/05/06 00:52:40;;;;;;;;;;;26.60;38.40;;;;;;5077265;28;1905;-47
2022/05/06 00:55:09;;;;;;;;;;;26.70;38.40;;;;;;5078164;28;1037;-48
2022/05/06 00:57:35;;;;;;;;;;;26.60;38.40;;;;;;5077140;28;988;-48
2022/05/06 01:00:19;;;;;;;;;;;26.60;38.30;;;;;;5077401;28;1254;-49
2022/05/06 01:02:45;;;;;;;;;;;26.60;38.30;;;;;;5076894;28;1011;-48
2022/05/06 01:05:13;;;;;;;;;;;26.60;38.30;;;;;;5076528;28;1766;-48
2022/05/06 01:07:39;;;;;;;;;;;26.60;38.20;;;;;;5076551;28;925;-47
2022/05/06 01:10:08;;;;;;;;;;;26.60;38.20;;;;;;5077438;28;969;-47
2022/05/06 01:12:35;;;;;;;;;;;26.70;38.20;;;;;;5078026;28;929;-47
2022/05/06 01:15:01;;;;;;;;;;;26.70;38.20;;;;;;5076576;28;1986;-49
2022/05/06 01:17:28;;;;;;;;;;;26.70;38.20;;;;;;5076750;28;1008;-39
2022/05/06 01:19:55;;;;;;;;;;;26.70;38.20;;;;;;5078842;28;1030;-40
2022/05/06 01:22:23;;;;;;;;;;;26.70;38.20;;;;;;5077677;28;865;-46
2022/05/06 01:24:50;;;;;;;;;;;26.70;38.30;;;;;;5076067;28;1003;-46
2022/05/06 01:27:21;;;;;;;;;;;26.70;38.20;;;;;;5075951;28;1025;-47
2022/05/06 01:29:48;;;;;;;;;;;26.60;38.30;;;;;;5077202;28;964;-46
2022/05/06 01:32:17;;;;;;;;;;;26.60;38.30;;;;;;5077084;28;1109;-47
2022/05/06 01:34:45;;;;;;;;;;;26.60;38.20;;;;;;5077897;28;1991;-45
2022/05/06 01:37:12;;;;;;;;;;;26.60;38.20;;;;;;5077322;28;983;-46
2022/05/06 01:39:40;;;;;;;;;;;26.70;38.20;;;;;;5078085;28;964;-46
2022/05/06 01:42:12;;;;;;;;;;;26.60;38.10;;;;;;5078475;28;1006;-46
2022/05/06 01:44:40;;;;;;;;;;;26.60;38.20;;;;;;5078540;28;993;-46
2022/05/06 01:47:11;;;;;;;;;;;26.50;38.10;;;;;;5078180;28;964;-46
2022/05/06 01:49:39;;;;;;;;;;;26.60;38.00;;;;;;5077649;28;921;-46
2022/05/06 01:52:07;;;;;;;;;;;26.70;38.10;;;;;;5077459;28;1024;-46
2022/05/06 01:54:34;;;;;;;;;;;26.60;38.00;;;;;;5076808;28;2000;-46
2022/05/06 01:57:02;;;;;;;;;;;26.60;38.00;;;;;;5077316;28;1074;-46
2022/05/06 01:59:29;;;;;;;;;;;26.60;38.00;;;;;;5077921;28;957;-45
2022/05/06 02:01:56;;;;;;;;;;;26.70;38.10;;;;;;5078227;28;1003;-46
2022/05/06 02:07:06;;;;;;;;;;;26.60;38.10;;;;;;5076871;28;1015;-46
2022/05/06 02:09:33;;;;;;;;;;;26.60;38.10;;;;;;5077807;28;1039;-46
2022/05/06 02:12:02;;;;;;;;;;;26.60;38.10;;;;;;5077128;28;1098;-46
2022/05/06 02:14:29;;;;;;;;;;;26.60;38.00;;;;;;5075326;28;1983;-46
2022/05/06 02:16:56;;;;;;;;;;;26.60;37.90;;;;;;5076472;28;975;-47
2022/05/06 02:19:22;;;;;;;;;;;26.60;38.00;;;;;;5075755;28;1882;-46
2022/05/06 02:21:49;;;;;;;;;;;26.70;38.00;;;;;;5076840;28;1020;-47
2022/05/06 02:24:16;;;;;;;;;;;26.60;37.80;;;;;;5076547;28;972;-47
2022/05/06 02:26:43;;;;;;;;;;;26.60;37.90;;;;;;5076868;28;1008;-45
2022/05/06 02:29:11;;;;;;;;;;;26.60;38.00;;;;;;5075931;28;873;-47
2022/05/06 02:34:30;;;;;;;;;;;26.60;38.00;;;;;;5027719;28;1898;-46
2022/05/06 02:36:57;;;;;;;;;;;26.60;37.90;;;;;;5075924;28;1055;-46
2022/05/06 02:39:23;;;;;;;;;;;26.50;37.90;;;;;;5076168;28;964;-46
2022/05/06 02:41:51;;;;;;;;;;;26.50;38.00;;;;;;5076854;28;1107;-45
2022/05/06 02:44:19;;;;;;;;;;;26.60;38.00;;;;;;5076733;28;928;-46
2022/05/06 02:46:46;;;;;;;;;;;26.50;37.90;;;;;;5076687;28;968;-46
2022/05/06 02:49:13;;;;;;;;;;;26.50;37.90;;;;;;5075492;28;1055;-46
2022/05/06 02:51:39;;;;;;;;;;;26.50;37.90;;;;;;5075951;28;904;-46
2022/05/06 02:57:19;;;;;;;;;;;26.50;37.90;;;;;;5076142;28;635;-46
2022/05/06 02:59:47;;;;;;;;;;;26.50;38.10;;;;;;5075892;28;2862;-48
2022/05/06 03:02:14;;;;;;;;;;;26.50;38.00;;;;;;5074958;28;1052;-46
2022/05/06 03:04:41;;;;;;;;;;;26.50;38.10;;;;;;5075144;28;1003;-46
2022/05/06 03:07:08;;;;;;;;;;;26.50;37.90;;;;;;5074977;28;1012;-46
2022/05/06 03:09:38;;;;;;;;;;;26.50;37.90;;;;;;5074968;28;984;-46
2022/05/06 03:12:05;;;;;;;;;;;26.50;38.00;;;;;;5074115;28;1038;-46
2022/05/06 03:14:32;;;;;;;;;;;26.60;38.00;;;;;;5075498;28;1909;-45
2022/05/06 03:17:00;;;;;;;;;;;26.50;37.90;;;;;;5075201;28;999;-47
2022/05/06 03:19:27;;;;;;;;;;;26.60;38.00;;;;;;5074907;28;937;-46
2022/05/06 03:21:55;;;;;;;;;;;26.60;38.00;;;;;;5075709;28;1009;-46
2022/05/06 03:24:21;;;;;;;;;;;26.50;39.10;;;;;;5076143;28;1000;-46
2022/05/06 03:26:48;;;;;;;;;;;26.50;38.00;;;;;;5075272;28;985;-47
2022/05/06 03:29:15;;;;;;;;;;;26.60;38.00;;;;;;5075082;28;921;-46
2022/05/06 03:31:41;;;;;;;;;;;26.50;38.10;;;;;;5075755;28;945;-46
2022/05/06 03:34:10;;;;;;;;;;;26.50;38.00;;;;;;5073882;28;1898;-46
2022/05/06 03:36:36;;;;;;;;;;;26.40;38.10;;;;;;5075216;28;1016;-45
2022/05/06 03:39:03;;;;;;;;;;;26.40;38.20;;;;;;5074470;28;977;-46
2022/05/06 03:41:30;;;;;;;;;;;26.40;38.10;;;;;;5073413;28;1043;-46
2022/05/06 03:43:58;;;;;;;;;;;26.40;38.10;;;;;;5072714;28;960;-46
2022/05/06 03:46:24;;;;;;;;;;;26.40;38.20;;;;;;5072209;28;1112;-45
2022/05/06 03:48:51;;;;;;;;;;;26.40;38.10;;;;;;5071950;28;988;-45
2022/05/06 03:51:22;;;;;;;;;;;26.40;38.20;;;;;;5073210;28;1764;-46
2022/05/06 03:53:48;;;;;;;;;;;26.40;38.10;;;;;;5073239;28;1979;-46
2022/05/06 03:56:15;;;;;;;;;;;26.40;38.10;;;;;;5072995;28;1015;-46
2022/05/06 03:58:42;;;;;;;;;;;26.40;38.10;;;;;;5072453;28;937;-46
2022/05/06 04:01:09;;;;;;;;;;;26.40;38.30;;;;;;5073031;28;1008;-46
2022/05/06 04:03:36;;;;;;;;;;;26.40;38.20;;;;;;5071721;28;869;-46
2022/05/06 04:06:03;;;;;;;;;;;26.40;38.10;;;;;;5072289;28;1250;-51
2022/05/06 04:08:32;;;;;;;;;;;26.40;38.10;;;;;;5070758;28;976;-46
2022/05/06 04:10:58;;;;;;;;;;;26.40;38.20;;;;;;5071936;28;988;-46
2022/05/06 04:13:25;;;;;;;;;;;26.40;38.20;;;;;;5071385;28;1069;-46
2022/05/06 04:15:52;;;;;;;;;;;26.40;38.10;;;;;;5071587;28;1981;-46
2022/05/06 04:18:19;;;;;;;;;;;26.40;38.20;;;;;;5071283;28;1005;-46
2022/05/06 04:23:32;;;;;;;;;;;26.40;38.20;;;;;;5070786;28;661;-46
2022/05/06 04:25:59;;;;;;;;;;;26.40;38.30;;;;;;5070744;28;888;-46
2022/05/06 04:28:26;;;;;;;;;;;26.40;38.20;;;;;;5071342;28;965;-46
2022/05/06 04:30:53;;;;;;;;;;;26.40;38.30;;;;;;5071194;28;1009;-46
2022/05/06 04:33:20;;;;;;;;;;;26.40;38.30;;;;;;5069889;28;1059;-45
2022/05/06 04:35:47;;;;;;;;;;;26.30;38.30;;;;;;5070449;28;1909;-46
2022/05/06 04:38:14;;;;;;;;;;;26.40;38.10;;;;;;5069992;28;862;-45
2022/05/06 04:40:42;;;;;;;;;;;26.40;38.10;;;;;;5070416;28;1006;-46
2022/05/06 04:43:09;;;;;;;;;;;26.40;38.30;;;;;;5070068;28;992;-46
2022/05/06 04:45:37;;;;;;;;;;;26.40;38.30;;;;;;5071084;28;995;-46
2022/05/06 04:48:05;;;;;;;;;;;26.30;38.30;;;;;;5070608;28;1040;-46
2022/05/06 04:50:32;;;;;;;;;;;26.40;38.40;;;;;;5069069;28;1001;-47
2022/05/06 04:52:59;;;;;;;;;;;26.30;38.30;;;;;;5069239;28;1016;-47
2022/05/06 04:55:26;;;;;;;;;;;26.30;38.50;;;;;;5067678;28;1973;-46
2022/05/06 04:57:54;;;;;;;;;;;26.30;38.40;;;;;;5068362;28;972;-46
2022/05/06 05:00:21;;;;;;;;;;;26.30;38.40;;;;;;5067994;28;944;-45
2022/05/06 05:02:48;;;;;;;;;;;26.30;38.40;;;;;;5067483;28;989;-47
2022/05/06 05:05:15;;;;;;;;;;;26.40;38.40;;;;;;5064242;28;997;-46
2022/05/06 05:07:42;;;;;;;;;;;26.40;38.30;;;;;;5065887;28;838;-46
2022/05/06 05:10:09;;;;;;;;;;;26.40;38.30;;;;;;5065543;28;989;-46
2022/05/06 05:12:36;;;;;;;;;;;26.40;38.40;;;;;;5064711;28;921;-46
2022/05/06 05:15:04;;;;;;;;;;;26.30;38.40;;;;;;5062864;28;1917;-46
2022/05/06 05:17:31;;;;;;;;;;;26.30;38.40;;;;;;5064646;28;783;-46
2022/05/06 05:19:58;;;;;;;;;;;26.30;38.40;;;;;;5062671;28;993;-45
2022/05/06 05:22:25;;;;;;;;;;;26.30;38.40;;;;;;5062225;28;921;-45
2022/05/06 05:24:51;;;;;;;;;;;26.40;38.40;;;;;;5063454;28;993;-45
2022/05/06 05:27:18;;;;;;;;;;;26.30;38.40;;;;;;5062537;28;1169;-45
2022/05/06 05:29:45;;;;;;;;;;;26.30;38.40;;;;;;5060785;28;870;-46
2022/05/06 05:32:14;;;;;;;;;;;26.30;38.40;;;;;;5064403;28;1130;-45
2022/05/06 05:34:42;;;;;;;;;;;26.30;38.40;;;;;;5065817;28;1980;-47
2022/05/06 05:37:09;;;;;;;;;;;26.40;38.30;;;;;;5065870;28;988;-47
2022/05/06 05:39:36;;;;;;;;;;;26.40;38.40;;;;;;5068825;28;927;-46
2022/05/06 05:42:04;;;;;;;;;;;26.40;38.40;;;;;;5068626;28;1039;-46
2022/05/06 05:50:00;;;;;;;;;;;26.40;38.30;;;;;;5052129;28;857;-47
2022/05/06 05:52:27;;;;;;;;;;;26.40;38.40;;;;;;5053972;28;916;-47
2022/05/06 05:54:54;;;;;;;;;;;26.40;38.50;;;;;;5048411;28;1898;-46
2022/05/06 05:57:21;;;;;;;;;;;26.40;38.50;;;;;;5048892;28;941;-46
2022/05/06 05:59:48;;;;;;;;;;;26.40;38.50;;;;;;5048865;28;1025;-47
2022/05/06 06:02:16;;;;;;;;;;;26.30;38.60;;;;;;5046900;28;1673;-46
2022/05/06 06:04:44;;;;;;;;;;;26.40;38.70;;;;;;5049604;28;1051;-48
2022/05/06 06:07:10;;;;;;;;;;;26.40;38.80;;;;;;5049197;28;1008;-47
2022/05/06 06:09:37;;;;;;;;;;;26.40;38.70;;;;;;5048194;28;941;-46
2022/05/06 06:12:05;;;;;;;;;;;26.40;38.80;;;;;;5047279;28;941;-46
2022/05/06 06:14:31;;;;;;;;;;;26.40;38.80;;;;;;5048211;28;1898;-46
2022/05/06 06:16:58;;;;;;;;;;;26.40;38.80;;;;;;5048311;28;1170;-45
2022/05/06 06:19:26;;;;;;;;;;;26.40;38.90;;;;;;5047726;28;808;-46
2022/05/06 06:21:53;;;;;;;;;;;26.50;38.80;;;;;;5052737;28;989;-45
2022/05/06 06:24:20;;;;;;;;;;;26.50;38.80;;;;;;5051844;28;945;-45
2022/05/06 06:26:47;;;;;;;;;;;26.40;39.00;;;;;;5050841;28;962;-45
2022/05/06 06:29:13;;;;;;;;;;;26.40;39.10;;;;;;5048774;28;851;-45
2022/05/06 06:31:40;;;;;;;;;;;26.40;39.00;;;;;;5046997;28;999;-45
2022/05/06 06:34:08;;;;;;;;;;;26.40;39.00;;;;;;5045621;28;1066;-45
2022/05/06 06:36:36;;;;;;;;;;;26.40;39.10;;;;;;5046606;28;1981;-45
2022/05/06 06:39:03;;;;;;;;;;;26.40;39.00;;;;;;5049490;28;889;-46
2022/05/06 06:41:30;;;;;;;;;;;26.40;39.10;;;;;;5049302;28;1249;-45
2022/05/06 06:43:57;;;;;;;;;;;26.40;39.10;;;;;;5048060;28;913;-44
2022/05/06 06:46:24;;;;;;;;;;;26.40;39.10;;;;;;5045893;28;1048;-45
2022/05/06 06:48:51;;;;;;;;;;;26.40;39.20;;;;;;5048732;28;939;-45
2022/05/06 06:51:18;;;;;;;;;;;26.30;39.20;;;;;;5047303;28;984;-46
2022/05/06 06:53:47;;;;;;;;;;;26.40;39.00;;;;;;5047851;28;1012;-45
2022/05/06 06:56:13;;;;;;;;;;;26.40;38.90;;;;;;5044253;28;1898;-42
2022/05/06 06:58:40;;;;;;;;;;;26.40;38.90;;;;;;5048199;28;902;-42
2022/05/06 07:01:07;;;;;;;;;;;26.40;38.90;;;;;;5047322;28;874;-42
2022/05/06 07:03:33;;;;;;;;;;;26.40;38.80;;;;;;5047290;28;986;-42
2022/05/06 07:14:14;;;;;;;;;;;26.50;38.80;;;;;;5046991;28;666;-42
2022/05/06 07:16:41;;;;;;;;;;;26.50;38.90;;;;;;5046409;28;1913;-42
2022/05/06 07:19:08;;;;;;;;;;;26.50;38.80;;;;;;5048874;28;865;-43
2022/05/06 07:21:35;;;;;;;;;;;26.50;38.80;;;;;;5046745;28;897;-46
2022/05/06 07:24:03;;;;;;;;;;;26.50;38.80;;;;;;5045789;28;1021;-45
2022/05/06 07:26:30;;;;;;;;;;;26.50;38.80;;;;;;5046076;28;1029;-45
2022/05/06 07:28:57;;;;;;;;;;;26.60;38.80;;;;;;5043022;28;924;-46
2022/05/06 07:31:24;;;;;;;;;;;26.50;38.80;;;;;;5044254;28;974;-44
2022/05/06 07:33:51;;;;;;;;;;;26.60;38.80;;;;;;5044902;28;1131;-44
2022/05/06 07:36:18;;;;;;;;;;;26.50;38.80;;;;;;5044101;28;1988;-45
2022/05/06 07:38:44;;;;;;;;;;;26.50;38.80;;;;;;5044640;28;1004;-45
2022/05/06 07:41:12;;;;;;;;;;;26.60;38.80;;;;;;5043410;28;1044;-45
2022/05/06 07:43:39;;;;;;;;;;;26.50;38.70;;;;;;5045097;28;984;-45
2022/05/06 07:46:09;;;;;;;;;;;26.50;38.80;;;;;;5046253;28;941;-46
2022/05/06 07:48:35;;;;;;;;;;;26.50;38.80;;;;;;5046340;28;1001;-45
2022/05/06 07:51:02;;;;;;;;;;;26.50;38.70;;;;;;5046085;28;1021;-46
2022/05/06 07:53:29;;;;;;;;;;;26.60;38.70;;;;;;5045466;28;862;-45
2022/05/06 07:55:55;;;;;;;;;;;26.60;38.70;;;;;;5043374;28;1909;-45
2022/05/06 07:58:24;;;;;;;;;;;26.60;38.80;;;;;;5045595;28;1075;-45
2022/05/06 08:00:51;;;;;;;;;;;26.50;38.80;;;;;;5063354;28;1610;-46
2022/05/06 08:06:02;;;;;;;;;;;26.60;38.70;;;;;;5063682;28;901;-46
2022/05/06 08:08:30;;;;;;;;;;;26.60;38.70;;;;;;5066386;28;977;-45
2022/05/06 08:10:57;;;;;;;;;;;26.50;38.70;;;;;;5064813;28;1008;-46
2022/05/06 08:13:26;;;;;;;;;;;26.50;38.70;;;;;;5070334;28;1014;-45
2022/05/06 08:15:54;;;;;;;;;;;26.50;38.80;;;;;;5070218;28;1982;-45
2022/05/06 08:18:21;;;;;;;;;;;26.60;38.70;;;;;;5067007;28;948;-46
2022/05/06 08:20:49;;;;;;;;;;;26.60;38.70;;;;;;5065524;28;944;-45
2022/05/06 08:23:15;;;;;;;;;;;26.50;38.80;;;;;;5065892;28;1014;-45
2022/05/06 08:25:42;;;;;;;;;;;26.50;38.60;;;;;;5066146;28;998;-45
2022/05/06 08:28:09;;;;;;;;;;;26.50;38.70;;;;;;5065727;28;933;-45
2022/05/06 08:30:37;;;;;;;;;;;26.50;38.70;;;;;;5065390;28;978;-45
2022/05/06 08:33:04;;;;;;;;;;;26.50;38.60;;;;;;5067125;28;1015;-45
2022/05/06 08:35:31;;;;;;;;;;;26.50;39.80;;;;;;5066326;28;1910;-45
2022/05/06 08:37:58;;;;;;;;;;;26.50;38.70;;;;;;5067239;28;1020;-45
2022/05/06 08:40:26;;;;;;;;;;;26.50;38.80;;;;;;5065875;28;918;-46
2022/05/06 08:42:52;;;;;;;;;;;26.50;38.70;;;;;;5065467;28;1178;-45
2022/05/06 08:50:54;;;;;;;;;;;26.50;38.70;;;;;;5066000;28;1002;-45
2022/05/06 08:53:22;;;;;;;;;;;26.50;38.80;;;;;;5065744;28;928;-45
2022/05/06 08:55:49;;;;;;;;;;;26.50;38.70;;;;;;5065733;28;1977;-45
2022/05/06 08:58:16;;;;;;;;;;;26.60;38.70;;;;;;5065691;28;1000;-46
2022/05/06 09:00:43;;;;;;;;;;;26.50;38.70;;;;;;5063125;28;1006;-46
2022/05/06 09:03:12;;;;;;;;;;;26.60;38.70;;;;;;5063812;28;933;-45
2022/05/06 09:05:49;;;;;;;;;;;26.60;38.70;;;;;;5066285;28;997;-45
2022/05/06 09:08:15;;;;;;;;;;;26.60;38.70;;;;;;5067396;28;886;-45
2022/05/06 09:10:42;;;;;;;;;;;26.50;38.70;;;;;;5067363;28;983;-45
2022/05/06 09:13:09;;;;;;;;;;;26.50;38.60;;;;;;5069393;28;1015;-46
2022/05/06 09:18:24;;;;;;;;;;;26.60;38.70;;;;;;5067508;28;610;-45
2022/05/06 09:20:51;;;;;;;;;;;26.60;38.60;;;;;;5067670;28;940;-45
2022/05/06 09:23:24;;;;;;;;;;;26.50;38.70;;;;;;5066498;28;1149;-43
2022/05/06 09:25:51;;;;;;;;;;;26.60;38.70;;;;;;5066562;28;868;-43
2022/05/06 09:28:22;;;;;;;;;;;26.60;38.80;;;;;;5065852;28;842;-43
2022/05/06 09:30:59;;;;;;;;;;;26.60;38.70;;;;;;5067044;28;893;-43
2022/05/06 09:33:28;;;;;;;;;;;26.60;38.70;;;;;;5064988;28;980;-43
2022/05/06 09:35:55;;;;;;;;;;;26.50;38.60;;;;;;5070599;28;1910;-43
2022/05/06 09:38:24;;;;;;;;;;;26.60;38.60;;;;;;5071879;28;1344;-42
2022/05/06 09:40:51;;;;;;;;;;;26.60;38.60;;;;;;5071758;28;1139;-43
2022/05/06 09:43:18;;;;;;;;;;;26.60;38.50;;;;;;5068538;28;1075;-43
2022/05/06 09:45:46;;;;;;;;;;;26.60;38.50;;;;;;5068426;28;985;-43
2022/05/06 09:48:14;;;;;;;;;;;26.60;38.60;;;;;;5066271;28;941;-43
2022/05/06 09:50:42;;;;;;;;;;;26.60;38.50;;;;;;5066773;28;874;-43
2022/05/06 09:53:10;;;;;;;;;;;26.70;38.60;;;;;;5067211;28;993;-43
2022/05/06 09:55:38;;;;;;;;;;;26.70;38.50;;;;;;5068801;28;1914;-43
2022/05/06 09:58:06;;;;;;;;;;;26.70;38.50;;;;;;5066329;28;956;-43
2022/05/06 10:00:33;;;;;;;;;;;26.70;38.50;;;;;;5065834;28;1055;-43
2022/05/06 10:03:00;;;;;;;;;;;26.70;38.50;;;;;;5066266;28;865;-43
2022/05/06 10:05:28;;;;;;;;;;;26.70;38.50;;;;;;5069377;28;993;-43
2022/05/06 10:07:58;;;;;;;;;;;26.70;38.40;;;;;;5070876;28;1001;-43
2022/05/06 10:10:26;;;;;;;;;;;26.70;38.40;;;;;;5067599;28;1128;-43
2022/05/06 10:12:55;;;;;;;;;;;26.60;38.50;;;;;;5064643;28;839;-43
2022/05/06 10:15:23;;;;;;;;;;;26.70;38.60;;;;;;5065025;28;1482;-43
2022/05/06 10:17:51;;;;;;;;;;;26.60;38.50;;;;;;5063353;28;1976;-43
2022/05/06 10:20:36;;;;;;;;;;;26.70;38.50;;;;;;5065806;28;973;-43
2022/05/06 10:23:07;;;;;;;;;;;26.60;38.50;;;;;;5065069;28;889;-49
2022/05/06 10:25:49;;;;;;;;;;;26.70;38.50;;;;;;5065510;28;1032;-43
2022/05/06 10:34:23;;;;;;;;;;;26.60;38.50;;;;;;5066565;28;597;-43
2022/05/06 10:36:51;;;;;;;;;;;26.70;38.50;;;;;;5065347;28;1914;-43
2022/05/06 10:39:22;;;;;;;;;;;26.70;38.50;;;;;;5064665;28;1005;-43
2022/05/06 10:42:07;;;;;;;;;;;26.70;38.50;;;;;;5063545;28;1136;-44
2022/05/06 10:44:38;;;;;;;;;;;26.70;38.40;;;;;;5051226;28;1025;-42
2022/05/06 10:47:25;;;;;;;;;;;26.70;38.30;;;;;;5063657;28;1126;-43
2022/05/06 10:49:52;;;;;;;;;;;26.70;38.20;;;;;;5061470;28;1794;-43
2022/05/06 10:52:37;;;;;;;;;;;26.70;38.20;;;;;;5061307;28;1006;-43
2022/05/06 10:55:06;;;;;;;;;;;26.70;38.40;;;;;;5061835;28;1435;-42
2022/05/06 10:57:33;;;;;;;;;;;26.70;38.30;;;;;;5061851;28;1905;-43
2022/05/06 11:00:01;;;;;;;;;;;26.70;38.40;;;;;;5057951;28;862;-43
2022/05/06 11:02:29;;;;;;;;;;;26.70;38.40;;;;;;5056547;28;1133;-43
2022/05/06 11:04:56;;;;;;;;;;;26.70;38.40;;;;;;5059340;28;961;-43
2022/05/06 11:07:23;;;;;;;;;;;26.70;38.40;;;;;;5062651;28;857;-43
2022/05/06 11:09:51;;;;;;;;;;;26.70;38.30;;;;;;5063692;28;671;-43
2022/05/06 11:12:30;;;;;;;;;;;26.70;38.40;;;;;;5063733;28;1006;-43
2022/05/06 11:14:56;;;;;;;;;;;26.70;38.40;;;;;;5062258;28;1016;-42
2022/05/06 11:17:24;;;;;;;;;;;26.70;38.40;;;;;;5059790;28;1902;-43
2022/05/06 11:19:51;;;;;;;;;;;26.70;38.30;;;;;;5062552;28;1016;-43
2022/05/06 11:22:20;;;;;;;;;;;26.70;38.30;;;;;;5061475;28;1077;-43
2022/05/06 11:24:47;;;;;;;;;;;26.70;38.60;;;;;;5063131;28;965;-43
2022/05/06 11:27:14;;;;;;;;;;;26.60;38.50;;;;;;5062228;28;1116;-42
2022/05/06 11:29:49;;;;;;;;;;;26.70;38.60;;;;;;5063460;28;869;-43
2022/05/06 11:32:16;;;;;;;;;;;26.60;38.60;;;;;;5064858;28;1009;-43
2022/05/06 11:34:47;;;;;;;;;;;26.60;38.60;;;;;;5063632;28;1458;-43
2022/05/06 11:37:20;;;;;;;;;;;26.60;38.70;;;;;;5043080;28;1975;-43
2022/05/06 11:39:49;;;;;;;;;;;26.60;38.70;;;;;;5044885;28;989;-43
2022/05/06 11:42:19;;;;;;;;;;;26.60;38.70;;;;;;5043132;28;978;-43
2022/05/06 11:47:40;;;;;;;;;;;26.60;38.70;;;;;;5043025;28;650;-48
2022/05/06 11:50:08;;;;;;;;;;;26.60;38.80;;;;;;5042058;28;904;-45
2022/05/06 11:52:35;;;;;;;;;;;26.60;38.70;;;;;;5040432;28;1805;-42
2022/05/06 11:55:01;;;;;;;;;;;26.60;38.70;;;;;;5043459;28;984;-43
2022/05/06 11:57:29;;;;;;;;;;;26.60;38.70;;;;;;5042266;28;1910;-43
2022/05/06 11:59:57;;;;;;;;;;;26.60;38.70;;;;;;5042254;28;983;-43
2022/05/06 12:02:24;;;;;;;;;;;26.60;38.70;;;;;;5043815;28;1008;-43
2022/05/06 12:04:50;;;;;;;;;;;26.60;38.70;;;;;;5053820;28;1433;-43
2022/05/06 12:07:17;;;;;;;;;;;26.60;38.80;;;;;;5068561;28;1011;-43
2022/05/06 12:09:44;;;;;;;;;;;26.60;38.90;;;;;;5067122;28;1026;-42
2022/05/06 12:12:11;;;;;;;;;;;26.60;38.80;;;;;;5066169;28;1088;-43
2022/05/06 12:14:38;;;;;;;;;;;26.60;38.90;;;;;;5065097;28;881;-43
2022/05/06 12:17:10;;;;;;;;;;;26.60;38.90;;;;;;5064577;28;1976;-43
2022/05/06 12:19:37;;;;;;;;;;;26.60;38.90;;;;;;5065605;28;1007;-43
2022/05/06 12:22:09;;;;;;;;;;;26.50;38.90;;;;;;5067555;28;905;-43
2022/05/06 12:24:39;;;;;;;;;;;26.60;39.00;;;;;;5067589;28;957;-43
2022/05/06 12:27:06;;;;;;;;;;;26.60;39.00;;;;;;5065423;28;1111;-45
2022/05/06 12:29:36;;;;;;;;;;;26.60;39.00;;;;;;5065993;28;993;-46
2022/05/06 12:32:03;;;;;;;;;;;26.60;39.00;;;;;;5065358;28;1084;-46
2022/05/06 12:34:32;;;;;;;;;;;26.50;39.10;;;;;;5064704;28;847;-45
2022/05/06 12:37:11;;;;;;;;;;;26.60;39.00;;;;;;5064997;28;1969;-45
2022/05/06 12:39:40;;;;;;;;;;;26.60;39.10;;;;;;5065909;28;1523;-45
2022/05/06 12:42:13;;;;;;;;;;;26.60;39.10;;;;;;5069876;28;993;-45
2022/05/06 12:44:40;;;;;;;;;;;26.60;39.10;;;;;;5070491;28;932;-45
2022/05/06 12:47:14;;;;;;;;;;;26.60;39.20;;;;;;5068649;28;1435;-45
2022/05/06 12:49:41;;;;;;;;;;;26.50;39.00;;;;;;5069849;28;936;-46
2022/05/06 12:52:09;;;;;;;;;;;26.60;39.10;;;;;;5070785;28;1045;-47
2022/05/06 12:54:37;;;;;;;;;;;26.60;38.90;;;;;;5068541;28;894;-46
2022/05/06 12:57:04;;;;;;;;;;;26.60;38.90;;;;;;5070033;28;1923;-46
2022/05/06 12:59:31;;;;;;;;;;;26.60;39.10;;;;;;5069664;28;943;-45
2022/05/06 13:01:58;;;;;;;;;;;26.60;39.10;;;;;;5067471;28;984;-45
2022/05/06 13:04:24;;;;;;;;;;;26.60;39.10;;;;;;5068081;28;925;-45
2022/05/06 13:06:53;;;;;;;;;;;26.60;39.10;;;;;;5067970;28;1013;-45
2022/05/06 13:09:19;;;;;;;;;;;26.60;39.10;;;;;;5069087;28;1009;-46
2022/05/06 13:11:46;;;;;;;;;;;26.60;39.20;;;;;;5068628;28;985;-45
2022/05/06 13:14:13;;;;;;;;;;;26.60;39.20;;;;;;5069214;28;956;-46
2022/05/06 13:16:39;;;;;;;;;;;26.60;39.20;;;;;;5067622;28;1906;-45
2022/05/06 13:19:09;;;;;;;;;;;26.70;39.10;;;;;;5069434;28;873;-47
2022/05/06 13:21:37;;;;;;;;;;;26.70;39.00;;;;;;5069134;28;962;-45
2022/05/06 13:24:05;;;;;;;;;;;26.70;39.00;;;;;;5069067;28;951;-45
2022/05/06 13:26:33;;;;;;;;;;;26.70;39.00;;;;;;5069574;28;1012;-45
2022/05/06 13:29:00;;;;;;;;;;;26.70;38.90;;;;;;5069429;28;936;-45
2022/05/06 13:31:26;;;;;;;;;;;26.70;39.00;;;;;;5068837;28;1029;-46
2022/05/06 13:33:53;;;;;;;;;;;26.80;39.00;;;;;;5069044;28;1796;-43
2022/05/06 13:36:20;;;;;;;;;;;26.70;38.90;;;;;;5063703;28;948;-43
2022/05/06 13:38:47;;;;;;;;;;;26.70;38.90;;;;;;5066485;28;1975;-43
2022/05/06 13:41:16;;;;;;;;;;;26.70;38.90;;;;;;5068100;28;1149;-43
2022/05/06 13:43:43;;;;;;;;;;;26.80;39.00;;;;;;5070574;28;952;-43
2022/05/06 13:46:10;;;;;;;;;;;26.80;39.00;;;;;;5069843;28;1005;-43
2022/05/06 13:48:37;;;;;;;;;;;26.80;38.90;;;;;;5070331;28;834;-43
2022/05/06 13:51:04;;;;;;;;;;;26.90;38.90;;;;;;5069354;28;986;-43
2022/05/06 13:53:31;;;;;;;;;;;26.90;38.80;;;;;;5070749;28;1003;-43
2022/05/06 14:01:39;;;;;;;;;;;27.00;38.80;;;;;;5025606;28;949;-43
2022/05/06 14:04:06;;;;;;;;;;;27.00;38.60;;;;;;5057356;28;1368;-42
2022/05/06 14:06:33;;;;;;;;;;;27.00;38.60;;;;;;5066584;28;965;-43
2022/05/06 14:09:00;;;;;;;;;;;27.00;38.80;;;;;;5067000;28;1114;-45
2022/05/06 14:11:27;;;;;;;;;;;27.00;38.90;;;;;;5067093;28;965;-46
2022/05/06 14:13:55;;;;;;;;;;;27.00;38.90;;;;;;5067992;28;925;-46
2022/05/06 14:16:25;;;;;;;;;;;27.10;38.90;;;;;;5067769;28;999;-45
2022/05/06 14:18:52;;;;;;;;;;;27.10;38.80;;;;;;5064964;28;1898;-46
2022/05/06 14:21:19;;;;;;;;;;;27.10;38.70;;;;;;5065830;28;916;-45
2022/05/06 14:23:45;;;;;;;;;;;27.10;38.70;;;;;;5065972;28;975;-45
2022/05/06 14:26:12;;;;;;;;;;;27.10;38.50;;;;;;5066549;28;987;-45
2022/05/06 14:28:39;;;;;;;;;;;27.20;38.60;;;;;;5065871;28;977;-45
2022/05/06 14:31:07;;;;;;;;;;;27.20;38.60;;;;;;5066201;28;961;-46
2022/05/06 14:33:34;;;;;;;;;;;27.20;38.50;;;;;;5065820;28;949;-45
2022/05/06 14:36:01;;;;;;;;;;;27.20;38.60;;;;;;5066411;28;989;-45
2022/05/06 14:38:27;;;;;;;;;;;27.20;38.60;;;;;;5067822;28;1906;-45
2022/05/06 14:40:55;;;;;;;;;;;27.20;38.80;;;;;;5067267;28;998;-46
2022/05/06 14:43:22;;;;;;;;;;;27.20;38.60;;;;;;5065696;28;1126;-46
2022/05/06 14:45:49;;;;;;;;;;;27.30;38.50;;;;;;5064565;28;1036;-45
2022/05/06 14:48:17;;;;;;;;;;;27.30;38.50;;;;;;5065968;28;885;-45
2022/05/06 14:50:44;;;;;;;;;;;27.40;38.50;;;;;;5064086;28;934;-45
2022/05/06 14:53:10;;;;;;;;;;;27.40;38.50;;;;;;5066198;28;1037;-45
2022/05/06 14:55:37;;;;;;;;;;;27.40;38.50;;;;;;5065319;28;880;-45
2022/05/06 14:58:04;;;;;;;;;;;27.40;38.40;;;;;;5066996;28;1905;-45
2022/05/06 15:00:30;;;;;;;;;;;27.40;38.40;;;;;;5065158;28;1014;-45
2022/05/06 15:02:57;;;;;;;;;;;27.50;38.40;;;;;;5065098;28;1793;-45
2022/05/06 15:05:26;;;;;;;;;;;27.50;38.40;;;;;;5065106;28;1017;-45
2022/05/06 15:07:53;;;;;;;;;;;27.50;38.30;;;;;;5064551;28;961;-45
2022/05/06 15:10:19;;;;;;;;;;;27.60;38.40;;;;;;5066586;28;1039;-46
2022/05/06 15:12:46;;;;;;;;;;;27.60;38.20;;;;;;5066705;28;1035;-46
2022/05/06 15:15:14;;;;;;;;;;;27.60;38.40;;;;;;5065660;28;896;-46
2022/05/06 15:17:41;;;;;;;;;;;27.60;38.30;;;;;;5065432;28;1971;-45
2022/05/06 15:20:08;;;;;;;;;;;27.60;38.30;;;;;;5065362;28;976;-46
2022/05/06 15:22:38;;;;;;;;;;;27.70;38.40;;;;;;5065131;28;870;-45
2022/05/06 15:25:05;;;;;;;;;;;27.70;38.30;;;;;;5065149;28;1011;-45
2022/05/06 15:27:32;;;;;;;;;;;27.70;38.30;;;;;;5065962;28;1000;-45
2022/05/06 15:29:59;;;;;;;;;;;27.70;38.30;;;;;;5066685;28;937;-45